Time;durP1;ratioP1;P1;durP2;ratioP2;P2;SDS_P1;SDS_P2;PMS_P1;PMS_P2;Temp;Humidity;BMP_temperature;BMP_pressure;BME280_temperature;BME280_humidity;BME280_pressure;Samples;Min_cycle;Max_cycle;Signal;HPM_P1;HPM_P2
2021/12/08 00:00:47;;;;;;;0.77;0.57;;;;;;;;;;5052407;28;20053;-67
2021/12/08 00:03:13;;;;;;;0.88;0.30;;;;;;;;;;5055045;28;20053;-68
2021/12/08 00:05:43;;;;;;;0.63;0.40;;;;;;;;;;5053795;28;20061;-68
2021/12/08 00:08:09;;;;;;;0.95;0.22;;;;;;;;;;5055212;28;20028;-67
2021/12/08 00:13:06;;;;;;;0.32;0.32;;;;;;;;;;5055516;28;20048;-68
2021/12/08 00:15:33;;;;;;;0.98;0.25;;;;;;;;;;5054988;28;20016;-69
2021/12/08 00:17:59;;;;;;;0.65;0.35;;;;;;;;;;5053673;28;20021;-69
2021/12/08 00:20:27;;;;;;;0.60;0.40;;;;;;;;;;5054843;28;20040;-68
2021/12/08 00:22:53;;;;;;;1.23;0.40;;;;;;;;;;5055051;28;20477;-68
2021/12/08 00:25:18;;;;;;;2.80;0.63;;;;;;;;;;5054682;28;20111;-68
2021/12/08 00:27:43;;;;;;;0.57;0.45;;;;;;;;;;5054800;28;20029;-68
2021/12/08 00:30:08;;;;;;;0.53;0.27;;;;;;;;;;5054817;28;20066;-68
2021/12/08 00:32:36;;;;;;;0.57;0.32;;;;;;;;;;5054879;28;20590;-69
2021/12/08 00:35:01;;;;;;;0.43;0.20;;;;;;;;;;5054696;28;20013;-69
2021/12/08 00:37:28;;;;;;;0.63;0.30;;;;;;;;;;5054527;28;20028;-68
2021/12/08 00:39:53;;;;;;;2.25;0.60;;;;;;;;;;5054670;28;20021;-67
2021/12/08 00:42:19;;;;;;;0.73;0.30;;;;;;;;;;5054332;28;20147;-67
2021/12/08 00:44:44;;;;;;;0.47;0.30;;;;;;;;;;5054568;28;20016;-68
2021/12/08 00:47:09;;;;;;;0.55;0.40;;;;;;;;;;5054397;28;20017;-68
2021/12/08 00:49:35;;;;;;;1.13;0.40;;;;;;;;;;5054358;28;20417;-67
2021/12/08 00:52:00;;;;;;;0.85;0.30;;;;;;;;;;5053086;28;20028;-67
2021/12/08 00:54:25;;;;;;;0.93;0.30;;;;;;;;;;5054111;28;20083;-67
2021/12/08 00:56:50;;;;;;;0.82;0.40;;;;;;;;;;5054361;28;20080;-67
2021/12/08 00:59:15;;;;;;;0.50;0.30;;;;;;;;;;5054207;28;20025;-67
2021/12/08 01:01:41;;;;;;;0.50;0.50;;;;;;;;;;5054104;28;20644;-67
2021/12/08 01:04:07;;;;;;;0.57;0.30;;;;;;;;;;5054078;28;20357;-68
2021/12/08 01:06:32;;;;;;;0.43;0.20;;;;;;;;;;5053956;28;20028;-68
2021/12/08 01:08:57;;;;;;;0.57;0.22;;;;;;;;;;5053991;28;20052;-68
2021/12/08 01:11:23;;;;;;;0.77;0.38;;;;;;;;;;5053668;28;20026;-68
2021/12/08 01:13:48;;;;;;;1.20;0.40;;;;;;;;;;5053951;28;20550;-67
2021/12/08 01:16:14;;;;;;;1.33;0.68;;;;;;;;;;5053936;28;20075;-68
2021/12/08 01:18:40;;;;;;;1.23;0.40;;;;;;;;;;5053801;28;20072;-68
2021/12/08 01:21:06;;;;;;;0.40;0.20;;;;;;;;;;5053864;28;20347;-67
2021/12/08 01:23:32;;;;;;;0.95;0.50;;;;;;;;;;5053756;28;20021;-68
2021/12/08 01:25:57;;;;;;;1.13;0.47;;;;;;;;;;5053830;28;20029;-69
2021/12/08 01:28:23;;;;;;;0.80;0.30;;;;;;;;;;5053494;28;20420;-69
2021/12/08 01:30:50;;;;;;;0.47;0.47;;;;;;;;;;5053793;28;20488;-69
2021/12/08 01:33:15;;;;;;;0.55;0.20;;;;;;;;;;5053480;28;20092;-69
2021/12/08 01:35:41;;;;;;;0.93;0.50;;;;;;;;;;5052066;28;20114;-68
2021/12/08 01:38:06;;;;;;;0.77;0.20;;;;;;;;;;5053585;28;20028;-68
2021/12/08 01:40:32;;;;;;;1.02;0.40;;;;;;;;;;5053312;28;20031;-68
2021/12/08 01:42:59;;;;;;;0.38;0.20;;;;;;;;;;5053754;28;20028;-68
2021/12/08 01:48:23;;;;;;;1.00;0.30;;;;;;;;;;5030593;28;20036;-68
2021/12/08 01:50:53;;;;;;;0.87;0.40;;;;;;;;;;5030988;28;20021;-67
2021/12/08 01:53:18;;;;;;;0.82;0.20;;;;;;;;;;5030688;28;20251;-67
2021/12/08 01:55:44;;;;;;;0.55;0.25;;;;;;;;;;5030824;28;20384;-67
2021/12/08 01:58:09;;;;;;;0.73;0.32;;;;;;;;;;5030755;28;20080;-68
2021/12/08 02:00:40;;;;;;;0.55;0.20;;;;;;;;;;5030691;28;20453;-67
2021/12/08 02:03:06;;;;;;;0.40;0.30;;;;;;;;;;5054689;22;20081;-68
2021/12/08 02:05:32;;;;;;;0.47;0.20;;;;;;;;;;5052884;28;20063;-68
2021/12/08 02:07:57;;;;;;;1.42;0.52;;;;;;;;;;5052801;28;20044;-69
2021/12/08 02:10:25;;;;;;;1.77;0.30;;;;;;;;;;5052707;28;20353;-69
2021/12/08 02:12:52;;;;;;;1.60;0.40;;;;;;;;;;5053194;28;20067;-69
2021/12/08 02:15:19;;;;;;;0.47;0.28;;;;;;;;;;5052621;28;20030;-68
2021/12/08 02:17:46;;;;;;;1.20;0.30;;;;;;;;;;5051453;28;20025;-68
2021/12/08 02:20:12;;;;;;;1.02;0.70;;;;;;;;;;5052761;28;20031;-68
2021/12/08 02:22:38;;;;;;;1.60;0.60;;;;;;;;;;5052571;28;20079;-68
2021/12/08 02:25:05;;;;;;;0.73;0.40;;;;;;;;;;5052237;28;20021;-67
2021/12/08 02:27:34;;;;;;;1.35;0.30;;;;;;;;;;5052410;28;20017;-69
2021/12/08 02:30:09;;;;;;;0.20;0.20;;;;;;;;;;5052611;28;20099;-69
2021/12/08 02:48:52;;;;;;;0.50;0.20;;;;;;;;;;5052447;28;20102;-68
2021/12/08 02:51:17;;;;;;;0.30;0.22;;;;;;;;;;5050931;28;20452;-67
2021/12/08 02:53:42;;;;;;;0.20;0.10;;;;;;;;;;5052181;28;20055;-67
2021/12/08 02:56:07;;;;;;;1.10;0.40;;;;;;;;;;5052361;28;20104;-69
2021/12/08 02:58:32;;;;;;;1.13;0.20;;;;;;;;;;5052022;28;20242;-68
2021/12/08 03:00:58;;;;;;;0.30;0.30;;;;;;;;;;5052319;28;20035;-68
2021/12/08 03:03:24;;;;;;;0.45;0.35;;;;;;;;;;5051754;28;20400;-68
2021/12/08 03:05:49;;;;;;;1.02;0.17;;;;;;;;;;5052162;28;20059;-68
2021/12/08 03:08:14;;;;;;;0.30;0.20;;;;;;;;;;5051983;28;20029;-68
2021/12/08 03:10:42;;;;;;;0.30;0.20;;;;;;;;;;5050663;28;20071;-67
2021/12/08 03:13:08;;;;;;;0.70;0.20;;;;;;;;;;5051897;28;20021;-69
2021/12/08 03:15:34;;;;;;;0.65;0.20;;;;;;;;;;5051915;28;20025;-68
2021/12/08 03:17:59;;;;;;;0.50;0.20;;;;;;;;;;5052174;28;20464;-68
2021/12/08 03:20:28;;;;;;;0.55;0.20;;;;;;;;;;5051878;28;20027;-68
2021/12/08 03:23:00;;;;;;;1.02;0.43;;;;;;;;;;5052127;28;20020;-68
2021/12/08 03:25:25;;;;;;;1.25;0.28;;;;;;;;;;5051715;28;20078;-68
2021/12/08 03:28:04;;;;;;;0.63;0.20;;;;;;;;;;5051864;28;20460;-68
2021/12/08 03:30:35;;;;;;;0.30;0.10;;;;;;;;;;5051860;28;20052;-68
2021/12/08 03:33:00;;;;;;;0.15;0.10;;;;;;;;;;5050683;28;20021;-68
2021/12/08 03:35:25;;;;;;;1.00;0.28;;;;;;;;;;5051912;28;20350;-67
2021/12/08 03:37:51;;;;;;;0.77;0.20;;;;;;;;;;5056057;28;20105;-68
2021/12/08 03:40:18;;;;;;;0.85;0.40;;;;;;;;;;5056005;28;20028;-67
2021/12/08 03:42:43;;;;;;;0.65;0.10;;;;;;;;;;5055677;28;20096;-68
2021/12/08 03:45:17;;;;;;;0.60;0.20;;;;;;;;;;5055571;28;20103;-69
2021/12/08 03:47:44;;;;;;;1.23;0.32;;;;;;;;;;5055484;28;20025;-69
2021/12/08 03:50:12;;;;;;;0.30;0.15;;;;;;;;;;5054349;28;20025;-68
2021/12/08 03:52:38;;;;;;;1.25;0.22;;;;;;;;;;5055785;28;20114;-67
2021/12/08 03:55:04;;;;;;;0.22;0.10;;;;;;;;;;5055464;28;20017;-68
2021/12/08 03:57:30;;;;;;;1.23;0.30;;;;;;;;;;5055326;28;20025;-68
2021/12/08 03:59:55;;;;;;;0.28;0.20;;;;;;;;;;5055384;28;20021;-68
2021/12/08 04:02:20;;;;;;;0.53;0.30;;;;;;;;;;5055102;28;20114;-69
2021/12/08 04:04:49;;;;;;;0.33;0.20;;;;;;;;;;5055356;28;20249;-68
2021/12/08 04:07:16;;;;;;;0.43;0.38;;;;;;;;;;5055090;28;20250;-68
2021/12/08 04:09:43;;;;;;;0.65;0.20;;;;;;;;;;5055153;28;20017;-69
2021/12/08 04:12:09;;;;;;;0.47;0.17;;;;;;;;;;5055253;28;20021;-69
2021/12/08 04:14:36;;;;;;;0.05;0.05;;;;;;;;;;5055317;28;20013;-69
2021/12/08 04:17:05;;;;;;;0.08;0.08;;;;;;;;;;5055092;28;20059;-67
2021/12/08 04:19:30;;;;;;;0.47;0.30;;;;;;;;;;5053698;28;20021;-67
2021/12/08 04:21:57;;;;;;;0.47;0.17;;;;;;;;;;5055039;28;20135;-69
2021/12/08 04:24:22;;;;;;;0.63;0.20;;;;;;;;;;5053448;28;20115;-69
2021/12/08 04:26:52;;;;;;;1.17;0.20;;;;;;;;;;5055313;28;20059;-68
2021/12/08 04:29:19;;;;;;;0.80;0.10;;;;;;;;;;5054710;28;20457;-68
2021/12/08 04:31:44;;;;;;;0.15;0.10;;;;;;;;;;5054833;28;20104;-67
2021/12/08 04:34:16;;;;;;;0.20;0.17;;;;;;;;;;5054834;28;20535;-67
2021/12/08 04:36:45;;;;;;;0.38;0.10;;;;;;;;;;5054784;28;20013;-67
2021/12/08 04:39:16;;;;;;;0.60;0.10;;;;;;;;;;5054703;28;20396;-69
2021/12/08 04:41:47;;;;;;;0.50;0.10;;;;;;;;;;5054555;28;20028;-69
2021/12/08 04:44:25;;;;;;;1.73;0.52;;;;;;;;;;5053252;28;20029;-68
2021/12/08 05:04:24;;;;;;;0.63;0.20;;;;;;;;;;4934254;29;20050;-67
2021/12/08 05:06:41;;;;;;;0.20;0.10;;;;;;;;;;4932419;29;20074;-68
2021/12/08 05:09:08;;;;;;;0.30;0.10;;;;;;;;;;4934429;29;20126;-67
2021/12/08 05:11:35;;;;;;;0.57;0.10;;;;;;;;;;4934312;29;20154;-67
2021/12/08 05:14:20;;;;;;;0.85;0.40;;;;;;;;;;4934409;29;20536;-67
2021/12/08 05:16:47;;;;;;;0.88;0.10;;;;;;;;;;4933995;29;20039;-67
2021/12/08 05:19:14;;;;;;;0.73;0.10;;;;;;;;;;4934264;29;20036;-67
2021/12/08 05:21:42;;;;;;;0.35;0.10;;;;;;;;;;4918237;29;20036;-68
2021/12/08 05:24:10;;;;;;;0.65;0.20;;;;;;;;;;4934321;29;20460;-68
2021/12/08 05:26:37;;;;;;;0.45;0.10;;;;;;;;;;4934103;29;20403;-67
2021/12/08 05:29:08;;;;;;;0.63;0.10;;;;;;;;;;4934142;29;20352;-67
2021/12/08 05:31:34;;;;;;;0.47;0.20;;;;;;;;;;4933973;29;20023;-68
2021/12/08 05:33:59;;;;;;;0.82;0.40;;;;;;;;;;4954881;28;20422;-68
2021/12/08 05:36:25;;;;;;;0.73;0.10;;;;;;;;;;4991777;28;20022;-67
2021/12/08 05:38:51;;;;;;;0.63;0.20;;;;;;;;;;4992256;28;20030;-68
2021/12/08 05:41:19;;;;;;;0.35;0.20;;;;;;;;;;5053377;28;20017;-68
2021/12/08 05:43:45;;;;;;;0.20;0.10;;;;;;;;;;5053345;28;20025;-68
2021/12/08 05:46:11;;;;;;;0.40;0.10;;;;;;;;;;5053435;28;20371;-68
2021/12/08 05:48:37;;;;;;;0.30;0.00;;;;;;;;;;5053190;28;20079;-68
2021/12/08 05:51:06;;;;;;;0.55;0.17;;;;;;;;;;5053299;28;20017;-68
2021/12/08 05:53:32;;;;;;;0.20;0.20;;;;;;;;;;5053182;28;20021;-68
2021/12/08 05:55:57;;;;;;;0.40;0.28;;;;;;;;;;5053219;28;20341;-68
2021/12/08 05:58:23;;;;;;;0.95;0.35;;;;;;;;;;5050941;28;20040;-67
2021/12/08 06:00:54;;;;;;;0.30;0.10;;;;;;;;;;5053237;28;20036;-66
2021/12/08 06:03:20;;;;;;;0.65;0.20;;;;;;;;;;5052805;28;20491;-68
2021/12/08 06:05:46;;;;;;;1.45;0.25;;;;;;;;;;5051986;28;20017;-68
2021/12/08 06:08:12;;;;;;;0.38;0.25;;;;;;;;;;5051607;28;20241;-68
2021/12/08 06:10:37;;;;;;;0.28;0.10;;;;;;;;;;5052848;28;20017;-67
2021/12/08 06:13:03;;;;;;;0.30;0.30;;;;;;;;;;5052807;28;20050;-68
2021/12/08 06:15:29;;;;;;;0.40;0.10;;;;;;;;;;5052796;28;20100;-68
2021/12/08 06:17:54;;;;;;;0.30;0.10;;;;;;;;;;5052837;28;20086;-68
2021/12/08 06:20:20;;;;;;;0.20;0.10;;;;;;;;;;5052719;28;20483;-67
2021/12/08 06:22:46;;;;;;;0.43;0.20;;;;;;;;;;5052832;28;20379;-67
2021/12/08 06:25:12;;;;;;;0.05;0.00;;;;;;;;;;5052847;28;20028;-67
2021/12/08 06:27:38;;;;;;;0.25;0.13;;;;;;;;;;5051153;28;20033;-67
2021/12/08 06:30:07;;;;;;;0.17;0.10;;;;;;;;;;5052586;28;20467;-67
2021/12/08 06:32:32;;;;;;;0.80;0.15;;;;;;;;;;5052432;28;20480;-67
2021/12/08 06:34:58;;;;;;;0.00;0.00;;;;;;;;;;5052697;28;20055;-67
2021/12/08 06:37:26;;;;;;;0.20;0.20;;;;;;;;;;5052188;28;20020;-67
2021/12/08 06:39:56;;;;;;;0.47;0.20;;;;;;;;;;5052522;28;20457;-67
2021/12/08 06:42:23;;;;;;;0.63;0.20;;;;;;;;;;5052220;28;20032;-69
2021/12/08 06:44:49;;;;;;;0.25;0.05;;;;;;;;;;5051622;28;20066;-68
2021/12/08 06:47:20;;;;;;;0.75;0.10;;;;;;;;;;5052243;28;20103;-68
2021/12/08 06:49:46;;;;;;;0.68;0.10;;;;;;;;;;5052349;28;20028;-67
2021/12/08 06:52:23;;;;;;;0.10;0.10;;;;;;;;;;5052356;28;20013;-68
2021/12/08 06:55:08;;;;;;;0.30;0.22;;;;;;;;;;5052459;28;20504;-69
2021/12/08 06:57:51;;;;;;;0.35;0.30;;;;;;;;;;5050308;28;20059;-68
2021/12/08 07:00:23;;;;;;;0.63;0.10;;;;;;;;;;5052148;28;20024;-67
2021/12/08 07:03:08;;;;;;;0.22;0.05;;;;;;;;;;5052187;28;20119;-68
2021/12/08 07:08:19;;;;;;;1.10;0.10;;;;;;;;;;5047099;28;20032;-67
2021/12/08 07:10:46;;;;;;;0.00;0.00;;;;;;;;;;5065710;28;20091;-67
2021/12/08 07:13:16;;;;;;;1.05;0.10;;;;;;;;;;5064916;28;20052;-69
2021/12/08 07:15:51;;;;;;;0.05;0.00;;;;;;;;;;5038530;28;20071;-67
2021/12/08 07:18:21;;;;;;;1.40;0.10;;;;;;;;;;5038165;28;20052;-67
2021/12/08 07:20:48;;;;;;;0.20;0.10;;;;;;;;;;5038591;28;20523;-68
2021/12/08 07:23:19;;;;;;;1.08;0.17;;;;;;;;;;5038576;28;20499;-67
2021/12/08 07:25:44;;;;;;;0.47;0.10;;;;;;;;;;5038649;28;20096;-67
2021/12/08 07:28:11;;;;;;;0.35;0.20;;;;;;;;;;5038627;28;20113;-68
2021/12/08 07:30:39;;;;;;;0.68;0.20;;;;;;;;;;5038562;28;20504;-67
2021/12/08 07:33:05;;;;;;;0.55;0.10;;;;;;;;;;5037179;28;20096;-67
2021/12/08 07:35:32;;;;;;;0.75;0.10;;;;;;;;;;5038453;28;20096;-68
2021/12/08 07:37:57;;;;;;;0.30;0.17;;;;;;;;;;5037090;28;20025;-67
2021/12/08 07:40:28;;;;;;;0.50;0.10;;;;;;;;;;5038200;28;20044;-68
2021/12/08 07:42:55;;;;;;;0.65;0.30;;;;;;;;;;5044268;28;20032;-67
2021/12/08 07:45:23;;;;;;;0.93;0.00;;;;;;;;;;5056604;28;20025;-66
2021/12/08 07:47:49;;;;;;;0.75;0.28;;;;;;;;;;5058042;28;20020;-66
2021/12/08 07:50:17;;;;;;;0.20;0.10;;;;;;;;;;5058292;28;20091;-67
2021/12/08 07:52:43;;;;;;;0.80;0.57;;;;;;;;;;5058664;28;20023;-67
2021/12/08 07:55:11;;;;;;;0.35;0.00;;;;;;;;;;5061815;28;20016;-67
2021/12/08 07:57:37;;;;;;;0.75;0.15;;;;;;;;;;5063955;28;20052;-68
2021/12/08 08:00:15;;;;;;;0.30;0.05;;;;;;;;;;5058844;28;20020;-68
2021/12/08 08:02:41;;;;;;;0.77;0.20;;;;;;;;;;5058134;28;20041;-69
2021/12/08 08:05:08;;;;;;;0.52;0.10;;;;;;;;;;5056744;28;20013;-68
2021/12/08 08:07:34;;;;;;;0.63;0.10;;;;;;;;;;5058991;28;20013;-67
2021/12/08 08:10:01;;;;;;;0.28;0.03;;;;;;;;;;5078275;28;20100;-68
2021/12/08 08:12:28;;;;;;;0.10;0.00;;;;;;;;;;5068068;28;20016;-68
2021/12/08 08:14:56;;;;;;;1.17;0.47;;;;;;;;;;5070232;28;20034;-67
2021/12/08 08:17:29;;;;;;;0.40;0.10;;;;;;;;;;5077737;28;20024;-68
2021/12/08 08:19:54;;;;;;;0.43;0.10;;;;;;;;;;5078234;28;20017;-67
2021/12/08 08:22:29;;;;;;;0.40;0.20;;;;;;;;;;5068885;28;20016;-67
2021/12/08 08:24:56;;;;;;;0.10;0.10;;;;;;;;;;5054742;28;20017;-67
2021/12/08 08:27:22;;;;;;;0.30;0.25;;;;;;;;;;5054507;28;20029;-68
2021/12/08 08:29:47;;;;;;;0.45;0.10;;;;;;;;;;5055180;28;20398;-68
2021/12/08 08:32:22;;;;;;;0.10;0.10;;;;;;;;;;5055906;28;20017;-67
2021/12/08 08:34:47;;;;;;;;;;;;;;;;;;5057675;28;20128;-67
2021/12/08 08:37:13;;;;;;;1.20;0.15;;;;;;;;;;5064689;28;19996;-67
2021/12/08 08:39:41;;;;;;;0.80;0.35;;;;;;;;;;5054933;28;20025;-67
2021/12/08 08:42:12;;;;;;;0.32;0.25;;;;;;;;;;5054552;28;20017;-67
2021/12/08 08:44:45;;;;;;;0.20;0.10;;;;;;;;;;5054538;28;20052;-67
2021/12/08 08:47:14;;;;;;;0.47;0.13;;;;;;;;;;5057015;28;20059;-68
2021/12/08 08:49:40;;;;;;;0.15;0.03;;;;;;;;;;5074725;28;20451;-68
2021/12/08 08:52:08;;;;;;;0.20;0.10;;;;;;;;;;5074476;28;20468;-68
2021/12/08 08:54:35;;;;;;;1.42;0.15;;;;;;;;;;5054668;28;20021;-68
2021/12/08 08:57:11;;;;;;;0.35;0.10;;;;;;;;;;5053090;28;20456;-68
2021/12/08 08:59:45;;;;;;;0.55;0.10;;;;;;;;;;5054186;28;20096;-68
2021/12/08 09:02:13;;;;;;;0.80;0.10;;;;;;;;;;5054105;28;20087;-68
2021/12/08 09:04:41;;;;;;;0.47;0.20;;;;;;;;;;5054132;28;20033;-67
2021/12/08 09:07:11;;;;;;;0.93;0.20;;;;;;;;;;5053994;28;20023;-67
2021/12/08 09:09:38;;;;;;;0.38;0.10;;;;;;;;;;5054110;28;20048;-67
2021/12/08 09:12:03;;;;;;;0.50;0.10;;;;;;;;;;5053841;28;20021;-67
2021/12/08 09:14:32;;;;;;;1.40;0.40;;;;;;;;;;5055040;28;20028;-67
2021/12/08 09:17:00;;;;;;;0.40;0.10;;;;;;;;;;5061060;28;20024;-67
2021/12/08 09:19:28;;;;;;;0.80;0.22;;;;;;;;;;5055792;28;20100;-68
2021/12/08 09:22:06;;;;;;;1.75;0.80;;;;;;;;;;5034004;28;20029;-67
2021/12/08 09:24:38;;;;;;;0.13;0.10;;;;;;;;;;5043207;28;20240;-68
2021/12/08 09:27:05;;;;;;;0.40;0.10;;;;;;;;;;5053820;28;20103;-68
2021/12/08 09:29:40;;;;;;;0.60;0.20;;;;;;;;;;5052248;28;20499;-69
2021/12/08 09:32:08;;;;;;;0.20;0.10;;;;;;;;;;5053142;28;20120;-68
2021/12/08 09:34:37;;;;;;;0.70;0.15;;;;;;;;;;5052314;28;20040;-68
2021/12/08 09:37:08;;;;;;;0.82;0.10;;;;;;;;;;5053520;28;20029;-69
2021/12/08 09:39:35;;;;;;;0.15;0.10;;;;;;;;;;5053373;28;20487;-68
2021/12/08 09:42:06;;;;;;;1.08;0.20;;;;;;;;;;5053412;28;20419;-68
2021/12/08 09:44:33;;;;;;;0.65;0.32;;;;;;;;;;5052349;28;20432;-68
2021/12/08 09:46:58;;;;;;;0.20;0.10;;;;;;;;;;5053504;28;20033;-68
2021/12/08 09:49:25;;;;;;;0.55;0.10;;;;;;;;;;5052957;28;20029;-68
2021/12/08 09:51:51;;;;;;;0.10;0.10;;;;;;;;;;5053287;28;20036;-68
2021/12/08 09:54:16;;;;;;;0.40;0.10;;;;;;;;;;5051717;28;20021;-68
2021/12/08 09:56:42;;;;;;;1.05;0.10;;;;;;;;;;5053258;28;20024;-68
2021/12/08 09:59:09;;;;;;;1.30;0.13;;;;;;;;;;5053120;28;20024;-66
2021/12/08 10:01:37;;;;;;;0.05;0.05;;;;;;;;;;5053361;28;20017;-67
2021/12/08 10:04:03;;;;;;;0.75;0.10;;;;;;;;;;5053064;28;20212;-67
2021/12/08 10:06:29;;;;;;;0.30;0.00;;;;;;;;;;5052849;28;20027;-67
2021/12/08 10:08:57;;;;;;;0.17;0.17;;;;;;;;;;5053033;28;20028;-66
2021/12/08 10:11:23;;;;;;;0.50;0.10;;;;;;;;;;5047580;28;20037;-69
2021/12/08 10:13:48;;;;;;;0.88;0.00;;;;;;;;;;5059844;28;20461;-69
2021/12/08 10:16:13;;;;;;;0.60;0.20;;;;;;;;;;5053764;28;20066;-66
2021/12/08 10:18:39;;;;;;;0.30;0.10;;;;;;;;;;5063655;28;20052;-70
2021/12/08 10:21:04;;;;;;;0.20;0.10;;;;;;;;;;5052747;28;20028;-70
2021/12/08 10:23:34;;;;;;;0.30;0.20;;;;;;;;;;5051208;28;20052;-70
2021/12/08 10:26:02;;;;;;;0.30;0.13;;;;;;;;;;5056189;28;20028;-70
2021/12/08 10:28:28;;;;;;;0.73;0.10;;;;;;;;;;5061173;28;20050;-71
2021/12/08 10:30:53;;;;;;;0.00;0.00;;;;;;;;;;5065308;28;20373;-70
2021/12/08 10:33:48;;;;;;;0.20;0.10;;;;;;;;;;5050678;28;20479;-70
2021/12/08 10:36:33;;;;;;;0.20;0.10;;;;;;;;;;5052468;28;20281;-69
2021/12/08 10:38:59;;;;;;;0.00;0.00;;;;;;;;;;5054217;28;20017;-69
2021/12/08 10:41:24;;;;;;;0.20;0.10;;;;;;;;;;5071939;28;20042;-69
2021/12/08 10:43:56;;;;;;;0.43;0.10;;;;;;;;;;5061644;28;20028;-69
2021/12/08 10:46:31;;;;;;;0.38;0.03;;;;;;;;;;5057979;28;20328;-71
2021/12/08 10:49:09;;;;;;;0.08;0.00;;;;;;;;;;5058874;28;20035;-71
2021/12/08 10:54:27;;;;;;;0.68;0.10;;;;;;;;;;5072035;28;20027;-70
2021/12/08 10:56:56;;;;;;;0.43;0.10;;;;;;;;;;5072124;28;20024;-69
2021/12/08 10:59:22;;;;;;;0.80;0.10;;;;;;;;;;5071993;28;20023;-70
2021/12/08 11:01:47;;;;;;;0.50;0.10;;;;;;;;;;5072017;28;20120;-71
2021/12/08 11:04:16;;;;;;;0.93;0.10;;;;;;;;;;5072129;28;20056;-70
2021/12/08 11:06:41;;;;;;;0.10;0.00;;;;;;;;;;5072078;28;20256;-70
2021/12/08 11:09:19;;;;;;;1.40;0.40;;;;;;;;;;5070505;28;20353;-70
2021/12/08 11:11:44;;;;;;;0.57;0.10;;;;;;;;;;5071964;28;20255;-69
2021/12/08 11:14:11;;;;;;;0.73;0.10;;;;;;;;;;5070855;28;20012;-69
2021/12/08 11:16:40;;;;;;;0.20;0.05;;;;;;;;;;5071982;28;20021;-69
2021/12/08 11:19:10;;;;;;;0.40;0.13;;;;;;;;;;5072113;28;20379;-70
2021/12/08 11:21:38;;;;;;;0.50;0.35;;;;;;;;;;5071993;28;20091;-71
2021/12/08 11:24:05;;;;;;;0.35;0.17;;;;;;;;;;5072043;28;20464;-72
2021/12/08 11:26:37;;;;;;;0.05;0.00;;;;;;;;;;5071911;28;20016;-71
2021/12/08 11:29:18;;;;;;;1.10;0.20;;;;;;;;;;5070673;28;20530;-70
2021/12/08 11:31:45;;;;;;;0.55;0.20;;;;;;;;;;5071932;28;20055;-70
2021/12/08 11:34:21;;;;;;;0.65;0.10;;;;;;;;;;5072028;28;20009;-70
2021/12/08 11:36:50;;;;;;;0.00;0.00;;;;;;;;;;5072025;28;20024;-70
2021/12/08 11:39:17;;;;;;;1.38;0.20;;;;;;;;;;5071810;28;20051;-70
2021/12/08 11:41:44;;;;;;;0.40;0.15;;;;;;;;;;5071839;28;20047;-69
2021/12/08 11:44:11;;;;;;;0.20;0.10;;;;;;;;;;5055554;28;20515;-70
2021/12/08 11:46:38;;;;;;;0.20;0.10;;;;;;;;;;5064432;28;20028;-70
2021/12/08 11:49:04;;;;;;;0.40;0.00;;;;;;;;;;5055968;28;20024;-69
2021/12/08 11:51:50;;;;;;;0.30;0.00;;;;;;;;;;5057206;28;20032;-70
2021/12/08 11:54:22;;;;;;;1.02;0.20;;;;;;;;;;5047482;28;20032;-69
2021/12/08 11:56:47;;;;;;;0.85;0.10;;;;;;;;;;5051882;28;20037;-69
2021/12/08 11:59:14;;;;;;;0.00;0.00;;;;;;;;;;5057940;28;20085;-71
2021/12/08 12:01:39;;;;;;;0.15;0.10;;;;;;;;;;5058971;28;20268;-71
2021/12/08 12:04:05;;;;;;;0.30;0.00;;;;;;;;;;5056178;28;20033;-70
2021/12/08 12:06:32;;;;;;;1.60;0.10;;;;;;;;;;5061079;28;20028;-71
2021/12/08 12:08:58;;;;;;;1.52;0.22;;;;;;;;;;5051151;28;20021;-70
2021/12/08 12:11:27;;;;;;;0.40;0.10;;;;;;;;;;5055802;28;20025;-70
2021/12/08 12:13:53;;;;;;;0.25;0.20;;;;;;;;;;5055866;28;20040;-68
2021/12/08 12:16:18;;;;;;;0.35;0.00;;;;;;;;;;5062056;28;20060;-71
2021/12/08 12:18:43;;;;;;;0.40;0.10;;;;;;;;;;5062737;28;20530;-69
2021/12/08 12:21:27;;;;;;;0.95;0.30;;;;;;;;;;5053633;28;20280;-70
2021/12/08 12:24:11;;;;;;;0.63;0.05;;;;;;;;;;5054076;28;20108;-70
2021/12/08 12:26:55;;;;;;;0.53;0.13;;;;;;;;;;5050221;28;20048;-71
2021/12/08 12:29:26;;;;;;;0.55;0.10;;;;;;;;;;5066973;28;20671;-70
2021/12/08 12:31:52;;;;;;;0.52;0.20;;;;;;;;;;5055599;28;20017;-71
2021/12/08 12:34:32;;;;;;;0.82;0.10;;;;;;;;;;5052445;28;20175;-71
2021/12/08 12:36:58;;;;;;;0.38;0.08;;;;;;;;;;5050796;28;20017;-70
2021/12/08 12:39:25;;;;;;;0.68;0.20;;;;;;;;;;5053608;28;20017;-69
2021/12/08 12:41:59;;;;;;;0.00;0.00;;;;;;;;;;5060850;28;20211;-69
2021/12/08 12:44:26;;;;;;;0.10;0.08;;;;;;;;;;5058571;28;20111;-70
2021/12/08 12:47:04;;;;;;;0.20;0.10;;;;;;;;;;5074648;28;20021;-69
2021/12/08 12:49:30;;;;;;;0.20;0.10;;;;;;;;;;5058578;28;20025;-70
2021/12/08 12:51:56;;;;;;;0.50;0.20;;;;;;;;;;5048193;28;20112;-72
2021/12/08 12:54:25;;;;;;;0.38;0.17;;;;;;;;;;5066204;28;20068;-71
2021/12/08 12:56:51;;;;;;;0.32;0.20;;;;;;;;;;5052095;28;20016;-72
2021/12/08 12:59:20;;;;;;;1.67;0.17;;;;;;;;;;5052827;28;20062;-70
2021/12/08 13:01:47;;;;;;;0.40;0.10;;;;;;;;;;5050547;28;20021;-70
2021/12/08 13:04:19;;;;;;;0.00;0.00;;;;;;;;;;5054304;28;20416;-71
2021/12/08 13:07:03;;;;;;;0.20;0.10;;;;;;;;;;5049444;28;20024;-70
2021/12/08 13:09:37;;;;;;;0.65;0.38;;;;;;;;;;5051066;28;20024;-69
2021/12/08 13:12:03;;;;;;;;;;;;;;;;;;5053587;28;20265;-70
2021/12/08 13:14:30;;;;;;;1.23;0.10;;;;;;;;;;5052267;28;19916;-73
2021/12/08 13:17:09;;;;;;;0.20;0.03;;;;;;;;;;5055164;28;20100;-73
2021/12/08 13:19:38;;;;;;;0.32;0.10;;;;;;;;;;5051048;28;20100;-70
2021/12/08 13:22:04;;;;;;;0.47;0.10;;;;;;;;;;5049816;28;20017;-70
2021/12/08 13:24:36;;;;;;;0.52;0.10;;;;;;;;;;5048667;28;20107;-71
2021/12/08 13:27:28;;;;;;;0.20;0.10;;;;;;;;;;5056012;28;20029;-73
2021/12/08 13:30:07;;;;;;;0.35;0.05;;;;;;;;;;5050106;28;20116;-71
2021/12/08 13:32:45;;;;;;;0.00;0.00;;;;;;;;;;5048561;28;20035;-71
2021/12/08 13:35:10;;;;;;;0.50;0.15;;;;;;;;;;5049834;28;20221;-72
2021/12/08 13:37:35;;;;;;;0.63;0.15;;;;;;;;;;5051261;28;20059;-72
2021/12/08 13:40:06;;;;;;;0.43;0.20;;;;;;;;;;5047797;28;20086;-72
2021/12/08 13:42:33;;;;;;;0.25;0.10;;;;;;;;;;5050313;28;20288;-72
2021/12/08 13:45:09;;;;;;;0.65;0.30;;;;;;;;;;5057183;28;20017;-70
2021/12/08 13:47:41;;;;;;;0.35;0.10;;;;;;;;;;5053488;28;20025;-71
2021/12/08 13:50:06;;;;;;;0.73;0.10;;;;;;;;;;5055296;28;20506;-71
2021/12/08 13:52:32;;;;;;;0.95;0.22;;;;;;;;;;5056241;28;20479;-71
2021/12/08 13:55:16;;;;;;;0.40;0.13;;;;;;;;;;5055004;28;20491;-73
2021/12/08 13:57:44;;;;;;;0.27;0.10;;;;;;;;;;5052119;28;20087;-71
2021/12/08 14:00:09;;;;;;;0.45;0.13;;;;;;;;;;5057463;28;20021;-71
2021/12/08 14:02:37;;;;;;;0.47;0.10;;;;;;;;;;5051463;28;20242;-71
2021/12/08 14:05:07;;;;;;;0.73;0.17;;;;;;;;;;5056559;28;20052;-70
2021/12/08 14:07:33;;;;;;;0.32;0.00;;;;;;;;;;5051924;28;20021;-70
2021/12/08 14:09:59;;;;;;;1.25;0.00;;;;;;;;;;5055397;28;20379;-71
2021/12/08 14:12:38;;;;;;;0.20;0.10;;;;;;;;;;5045888;28;20452;-71
2021/12/08 14:15:04;;;;;;;0.00;0.00;;;;;;;;;;5048885;28;20017;-71
2021/12/08 14:17:29;;;;;;;0.63;0.10;;;;;;;;;;5054850;28;20039;-71
2021/12/08 14:19:54;;;;;;;0.20;0.10;;;;;;;;;;5052603;28;20027;-70
2021/12/08 14:22:20;;;;;;;0.10;0.10;;;;;;;;;;5050850;28;20296;-72
2021/12/08 14:24:54;;;;;;;0.32;0.15;;;;;;;;;;5048160;28;20017;-70
2021/12/08 14:27:19;;;;;;;;;;;;;;;;;;5051366;28;20029;-70
2021/12/08 14:29:48;;;;;;;1.23;0.15;;;;;;;;;;5060114;28;19912;-72
2021/12/08 14:32:13;;;;;;;0.60;0.10;;;;;;;;;;5049251;28;20025;-71
2021/12/08 14:34:39;;;;;;;0.20;0.13;;;;;;;;;;5049752;28;20134;-72
2021/12/08 14:37:07;;;;;;;0.05;0.05;;;;;;;;;;5050622;28;20452;-68
2021/12/08 14:39:38;;;;;;;0.57;0.10;;;;;;;;;;5049793;28;20103;-68
2021/12/08 14:42:14;;;;;;;0.20;0.10;;;;;;;;;;5054201;28;20055;-67
2021/12/08 14:44:44;;;;;;;1.02;0.10;;;;;;;;;;5051252;28;20032;-70
2021/12/08 14:47:10;;;;;;;0.93;0.20;;;;;;;;;;5051660;28;20017;-69
2021/12/08 14:49:37;;;;;;;0.40;0.10;;;;;;;;;;5052015;28;20067;-70
2021/12/08 14:52:04;;;;;;;0.82;0.30;;;;;;;;;;5056811;28;20117;-69
2021/12/08 14:54:32;;;;;;;0.52;0.10;;;;;;;;;;5048690;28;20377;-67
2021/12/08 14:57:04;;;;;;;0.40;0.10;;;;;;;;;;5051511;28;20040;-69
2021/12/08 14:59:29;;;;;;;1.23;0.30;;;;;;;;;;5051167;28;20341;-70
2021/12/08 15:01:55;;;;;;;1.15;0.30;;;;;;;;;;5055742;28;20041;-70
2021/12/08 15:04:20;;;;;;;0.30;0.10;;;;;;;;;;5055063;28;20099;-70
2021/12/08 15:06:57;;;;;;;0.17;0.00;;;;;;;;;;5057167;28;20025;-70
2021/12/08 15:09:25;;;;;;;0.13;0.00;;;;;;;;;;5054872;28;20025;-70
2021/12/08 15:11:51;;;;;;;0.57;0.10;;;;;;;;;;5052275;28;20021;-71
2021/12/08 15:14:16;;;;;;;0.50;0.05;;;;;;;;;;5051964;28;20143;-70
2021/12/08 15:16:52;;;;;;;0.57;0.20;;;;;;;;;;5052029;28;20017;-70
2021/12/08 15:19:17;;;;;;;0.77;0.43;;;;;;;;;;5052280;28;20143;-69
2021/12/08 15:21:46;;;;;;;0.30;0.10;;;;;;;;;;5051199;28;20454;-70
2021/12/08 15:24:13;;;;;;;0.20;0.10;;;;;;;;;;5051954;28;20028;-70
2021/12/08 15:26:39;;;;;;;1.08;0.10;;;;;;;;;;5051988;28;20115;-70
2021/12/08 15:29:06;;;;;;;0.68;0.10;;;;;;;;;;5051895;28;20126;-69
2021/12/08 15:31:32;;;;;;;0.57;0.10;;;;;;;;;;5053780;28;20480;-70
2021/12/08 15:33:58;;;;;;;1.38;0.20;;;;;;;;;;5055928;28;20021;-70